Time;durP1;ratioP1;P1;durP2;ratioP2;P2;SDS_P1;SDS_P2;PMS_P1;PMS_P2;Temp;Humidity;BMP_temperature;BMP_pressure;BME280_temperature;BME280_humidity;BME280_pressure;Samples;Min_cycle;Max_cycle;Signal;HPM_P1;HPM_P2
2022/07/10 04:14:48;;;;;;;0.60;0.60;;;18.90;71.10;;;;;;4993877;28;20523;-18
2022/07/10 04:17:13;;;;;;;1.48;0.75;;;18.90;71.40;;;;;;4907707;28;20079;-18
2022/07/10 04:19:39;;;;;;;0.60;0.60;;;19.00;71.30;;;;;;4917605;28;20114;-21
2022/07/10 04:22:04;;;;;;;0.85;0.85;;;18.90;71.20;;;;;;5006306;28;20134;-18
2022/07/10 04:24:30;;;;;;;0.63;0.63;;;19.00;71.00;;;;;;4997108;28;20049;-17
2022/07/10 04:26:56;;;;;;;0.60;0.60;;;19.00;70.80;;;;;;4963407;28;20048;-17
2022/07/10 04:29:22;;;;;;;0.50;0.50;;;18.90;70.80;;;;;;4988423;28;20507;-17
2022/07/10 04:31:48;;;;;;;0.90;0.70;;;18.90;70.90;;;;;;4964048;28;20050;-17
2022/07/10 04:34:13;;;;;;;0.70;0.70;;;19.00;70.80;;;;;;5004939;28;20050;-17
2022/07/10 04:36:39;;;;;;;0.65;0.65;;;19.00;70.50;;;;;;4963659;28;20034;-17
2022/07/10 04:39:04;;;;;;;0.65;0.65;;;18.90;70.30;;;;;;4964223;28;20439;-17
2022/07/10 04:41:30;;;;;;;0.75;0.75;;;18.80;70.60;;;;;;4959125;28;20045;-18
2022/07/10 04:43:55;;;;;;;0.77;0.77;;;18.80;70.60;;;;;;4969630;28;20038;-17
2022/07/10 04:46:21;;;;;;;0.63;0.63;;;18.80;70.50;;;;;;5005371;28;20057;-18
2022/07/10 04:48:47;;;;;;;0.68;0.68;;;18.80;70.30;;;;;;4963304;28;20042;-17
2022/07/10 04:51:12;;;;;;;0.50;0.50;;;18.80;70.00;;;;;;4931014;28;20060;-22
2022/07/10 04:53:38;;;;;;;0.57;0.57;;;18.70;70.20;;;;;;4954537;28;20072;-18
2022/07/10 04:56:03;;;;;;;0.57;0.57;;;18.70;70.20;;;;;;5004631;28;20038;-17
2022/07/10 04:58:29;;;;;;;0.50;0.50;;;18.80;70.10;;;;;;5002535;28;20039;-17
2022/07/10 05:00:55;;;;;;;0.70;0.70;;;18.80;69.90;;;;;;5005942;28;20045;-18
2022/07/10 05:03:20;;;;;;;0.60;0.60;;;18.80;69.90;;;;;;4927407;28;20052;-17
2022/07/10 05:05:46;;;;;;;0.70;0.70;;;18.80;69.90;;;;;;4962044;28;20559;-17
2022/07/10 05:08:11;;;;;;;0.80;0.80;;;18.70;69.80;;;;;;4974803;28;20045;-18
2022/07/10 05:10:37;;;;;;;0.95;0.70;;;18.80;69.70;;;;;;4989560;28;20096;-17
2022/07/10 05:13:02;;;;;;;0.65;0.50;;;18.70;69.70;;;;;;4933334;28;20114;-17
2022/07/10 05:15:28;;;;;;;0.63;0.63;;;18.80;69.70;;;;;;4953919;28;20073;-17
2022/07/10 05:17:54;;;;;;;1.23;0.50;;;18.70;70.00;;;;;;4953254;28;20124;-17
2022/07/10 05:20:19;;;;;;;0.90;0.52;;;18.70;70.20;;;;;;4957143;28;20040;-20
2022/07/10 05:22:45;;;;;;;0.47;0.45;;;18.70;70.10;;;;;;4933683;28;20500;-20
2022/07/10 05:25:11;;;;;;;1.27;0.50;;;18.60;70.20;;;;;;4966148;28;20053;-18
2022/07/10 05:27:36;;;;;;;0.50;0.50;;;18.60;70.30;;;;;;4988824;28;20038;-18
2022/07/10 05:30:02;;;;;;;0.50;0.50;;;18.70;70.30;;;;;;4991986;28;20524;-17
2022/07/10 05:32:27;;;;;;;0.50;0.50;;;18.70;69.90;;;;;;4950335;28;20064;-18
2022/07/10 05:34:53;;;;;;;0.60;0.60;;;18.70;70.20;;;;;;4935794;28;20056;-17
2022/07/10 05:37:19;;;;;;;0.75;0.75;;;18.70;70.20;;;;;;4930552;28;20073;-17
2022/07/10 05:39:45;;;;;;;0.52;0.52;;;18.70;70.20;;;;;;4899371;28;20049;-17
2022/07/10 05:42:10;;;;;;;0.50;0.50;;;18.60;70.20;;;;;;4962215;28;20419;-17
2022/07/10 05:44:36;;;;;;;0.60;0.60;;;18.70;70.20;;;;;;4946266;28;20580;-18
2022/07/10 05:47:01;;;;;;;1.52;0.60;;;18.70;70.10;;;;;;4934314;28;20037;-17
2022/07/10 05:49:27;;;;;;;0.90;0.90;;;18.70;70.00;;;;;;4894893;28;20095;-17
2022/07/10 05:51:52;;;;;;;0.77;0.73;;;18.70;70.00;;;;;;4910773;28;20410;-18
2022/07/10 05:54:18;;;;;;;0.70;0.70;;;18.70;70.30;;;;;;4918424;28;20044;-18
2022/07/10 05:56:44;;;;;;;0.47;0.47;;;18.70;70.30;;;;;;4894505;28;20094;-17
2022/07/10 05:59:10;;;;;;;0.70;0.70;;;18.70;70.30;;;;;;4962149;28;20060;-17
2022/07/10 06:01:36;;;;;;;0.60;0.60;;;18.70;71.00;;;;;;4985387;28;20058;-18
2022/07/10 06:04:01;;;;;;;2.08;0.90;;;18.70;70.20;;;;;;4895959;28;20052;-17
2022/07/10 06:06:27;;;;;;;1.33;0.52;;;18.70;70.30;;;;;;4934725;28;20070;-17
2022/07/10 06:08:52;;;;;;;0.57;0.57;;;18.70;70.20;;;;;;4911489;28;20069;-17
2022/07/10 06:11:18;;;;;;;0.70;0.60;;;18.70;70.00;;;;;;4918874;28;20133;-18
2022/07/10 06:13:43;;;;;;;0.65;0.65;;;18.70;69.80;;;;;;4934831;28;20555;-17
2022/07/10 06:16:09;;;;;;;0.70;0.52;;;18.70;70.10;;;;;;4935752;28;20076;-26
2022/07/10 06:18:34;;;;;;;0.50;0.50;;;18.70;69.50;;;;;;4894050;28;20501;-18
2022/07/10 06:21:00;;;;;;;0.50;0.50;;;18.70;69.40;;;;;;4916349;28;20097;-18
2022/07/10 06:23:26;;;;;;;0.77;0.50;;;18.70;69.20;;;;;;4914278;28;20074;-17
2022/07/10 06:25:51;;;;;;;0.52;0.47;;;18.80;68.80;;;;;;4892628;28;20041;-18
2022/07/10 06:28:17;;;;;;;0.40;0.40;;;18.80;68.40;;;;;;4935953;28;20103;-18
2022/07/10 06:30:43;;;;;;;1.63;0.40;;;18.80;68.00;;;;;;4903130;28;20041;-17
2022/07/10 06:33:09;;;;;;;0.52;0.50;;;18.80;68.00;;;;;;4983823;28;20057;-17
2022/07/10 06:35:34;;;;;;;0.40;0.35;;;18.80;67.70;;;;;;4908612;28;20294;-17
2022/07/10 06:38:00;;;;;;;0.40;0.40;;;18.80;67.50;;;;;;4894341;29;20410;-18
2022/07/10 06:40:26;;;;;;;2.13;0.40;;;18.80;67.40;;;;;;4963157;28;20049;-17
2022/07/10 06:42:52;;;;;;;3.00;0.30;;;18.80;67.30;;;;;;4976493;28;20049;-18
2022/07/10 06:45:17;;;;;;;0.50;0.50;;;18.90;67.20;;;;;;4894898;28;20115;-18
2022/07/10 06:48:01;;;;;;;0.85;0.32;;;18.90;66.80;;;;;;4982654;28;20056;-18
2022/07/10 06:50:30;;;;;;;0.20;0.20;;;18.90;66.50;;;;;;4954582;28;20067;-18
2022/07/10 06:52:56;;;;;;;0.40;0.40;;;19.00;66.30;;;;;;4950356;28;20075;-18
2022/07/10 06:55:22;;;;;;;0.43;0.40;;;19.10;66.00;;;;;;4999325;28;20037;-17
2022/07/10 06:57:47;;;;;;;0.73;0.40;;;19.10;65.50;;;;;;4967210;28;20042;-18
2022/07/10 07:00:13;;;;;;;0.30;0.30;;;19.20;65.30;;;;;;4964152;28;20465;-18
2022/07/10 07:02:39;;;;;;;0.43;0.30;;;19.20;65.70;;;;;;4905092;28;20067;-18
2022/07/10 07:05:05;;;;;;;1.55;0.28;;;19.30;65.70;;;;;;4956495;28;20058;-26
2022/07/10 07:07:31;;;;;;;0.40;0.30;;;19.30;65.80;;;;;;4949468;28;20045;-18
2022/07/10 07:09:56;;;;;;;0.38;0.38;;;19.30;66.30;;;;;;4557933;28;10000449;-18
2022/07/10 07:12:22;;;;;;;0.40;0.30;;;19.40;66.30;;;;;;4943956;28;20513;-18
2022/07/10 07:14:47;;;;;;;0.30;0.30;;;19.40;66.00;;;;;;4968644;28;20042;-17
2022/07/10 07:17:20;;;;;;;0.40;0.40;;;19.40;66.10;;;;;;4931443;28;20778;-18
2022/07/10 07:25:14;;;;;;;0.20;0.20;;;19.50;65.70;;;;;;4950930;28;20055;-17
2022/07/10 07:27:39;;;;;;;0.60;0.22;;;19.50;65.60;;;;;;4967641;28;20038;-18
2022/07/10 07:30:12;;;;;;;0.25;0.25;;;19.50;65.50;;;;;;4941238;28;20096;-17
2022/07/10 07:32:38;;;;;;;0.20;0.20;;;19.60;65.60;;;;;;4936267;28;20558;-18
2022/07/10 07:35:04;;;;;;;0.20;0.20;;;19.60;65.50;;;;;;4940645;28;20078;-17
2022/07/10 07:37:43;;;;;;;0.22;0.22;;;19.60;65.50;;;;;;4980915;28;20600;-17
2022/07/10 07:40:11;;;;;;;0.43;0.28;;;19.60;65.40;;;;;;4953310;28;20072;-17
2022/07/10 07:42:37;;;;;;;0.22;0.22;;;19.60;65.50;;;;;;4966000;28;20050;-17
2022/07/10 07:45:03;;;;;;;0.20;0.20;;;19.60;65.40;;;;;;4977465;28;20085;-17
2022/07/10 07:47:30;;;;;;;0.20;0.20;;;19.60;65.40;;;;;;4980862;28;20050;-17
2022/07/10 07:49:55;;;;;;;1.20;0.30;;;19.60;65.30;;;;;;4924717;28;20495;-18
2022/07/10 07:52:22;;;;;;;0.22;0.22;;;19.60;65.40;;;;;;4955393;28;20034;-18
2022/07/10 07:54:48;;;;;;;0.20;0.20;;;19.70;65.40;;;;;;4900149;28;20159;-18
2022/07/10 07:57:14;;;;;;;0.20;0.20;;;19.70;65.30;;;;;;4940547;28;20507;-18
2022/07/10 07:59:39;;;;;;;0.65;0.28;;;19.70;65.30;;;;;;4936797;28;20041;-18
2022/07/10 08:02:06;;;;;;;0.30;0.30;;;19.70;65.20;;;;;;4980540;28;20129;-17
2022/07/10 08:04:31;;;;;;;0.30;0.30;;;19.70;65.20;;;;;;4980129;28;20041;-20
2022/07/10 08:06:57;;;;;;;0.40;0.40;;;19.80;65.20;;;;;;4978925;28;20038;-18
2022/07/10 08:09:22;;;;;;;0.38;0.35;;;19.80;65.10;;;;;;4631313;28;10000404;-18
2022/07/10 08:11:48;;;;;;;0.43;0.43;;;19.80;65.00;;;;;;4590560;28;9999809;-18
2022/07/10 08:14:14;;;;;;;0.40;0.40;;;19.80;64.80;;;;;;4979280;28;20070;-27
2022/07/10 08:16:40;;;;;;;0.30;0.30;;;19.80;65.10;;;;;;4981367;28;20054;-18
2022/07/10 08:19:05;;;;;;;0.20;0.20;;;19.80;65.00;;;;;;4940309;28;20045;-18
2022/07/10 08:21:32;;;;;;;0.28;0.28;;;19.80;65.80;;;;;;4940186;28;20046;-18
2022/07/10 08:23:58;;;;;;;0.20;0.20;;;19.90;65.00;;;;;;4979339;28;20452;-18
2022/07/10 08:26:24;;;;;;;0.40;0.40;;;19.90;65.10;;;;;;4980274;28;20085;-18
2022/07/10 08:28:49;;;;;;;0.30;0.30;;;19.90;65.00;;;;;;4979144;28;20736;-18
2022/07/10 08:31:15;;;;;;;0.30;0.30;;;19.90;65.00;;;;;;4958334;28;20067;-18
2022/07/10 08:33:41;;;;;;;0.40;0.40;;;19.90;65.00;;;;;;4879253;28;20535;-18
2022/07/10 08:36:06;;;;;;;0.20;0.20;;;19.90;64.90;;;;;;4980702;28;20046;-18
2022/07/10 08:38:32;;;;;;;0.20;0.20;;;19.90;64.90;;;;;;4979478;28;20031;-18
2022/07/10 08:40:57;;;;;;;0.30;0.30;;;19.90;64.90;;;;;;4965170;28;20064;-18
2022/07/10 08:43:24;;;;;;;0.40;0.40;;;19.90;64.90;;;;;;4953071;28;20049;-18
2022/07/10 08:45:50;;;;;;;0.30;0.30;;;20.00;64.80;;;;;;4977644;28;20137;-18
2022/07/10 08:48:18;;;;;;;0.20;0.20;;;20.00;64.70;;;;;;4975248;28;20035;-18
2022/07/10 08:50:44;;;;;;;0.30;0.30;;;20.00;64.60;;;;;;4957086;28;20052;-18
2022/07/10 08:53:13;;;;;;;0.55;0.30;;;20.00;64.60;;;;;;4983333;28;20043;-18
2022/07/10 08:55:39;;;;;;;0.20;0.20;;;20.00;64.70;;;;;;4983332;28;20713;-18
2022/07/10 08:58:04;;;;;;;0.30;0.30;;;20.10;64.60;;;;;;4980397;28;20039;-18
2022/07/10 09:00:30;;;;;;;0.30;0.30;;;20.00;64.50;;;;;;4980243;28;20073;-21
2022/07/10 09:02:56;;;;;;;0.20;0.20;;;20.10;64.60;;;;;;4938961;28;20122;-18
2022/07/10 09:05:23;;;;;;;0.20;0.20;;;20.10;64.60;;;;;;4983503;28;20046;-18
2022/07/10 09:07:48;;;;;;;0.57;0.17;;;20.10;64.60;;;;;;4984030;28;20046;-18
2022/07/10 09:10:14;;;;;;;1.65;0.40;;;20.10;64.60;;;;;;4984186;28;20050;-18
2022/07/10 09:12:58;;;;;;;0.75;0.30;;;20.10;64.60;;;;;;4901223;28;20064;-18
2022/07/10 09:15:26;;;;;;;0.30;0.30;;;20.20;64.60;;;;;;4982738;28;20126;-19
2022/07/10 09:18:00;;;;;;;0.30;0.30;;;20.10;64.50;;;;;;4982861;28;20053;-18
2022/07/10 09:20:32;;;;;;;0.20;0.20;;;20.20;64.50;;;;;;4979619;28;20050;-18
2022/07/10 09:22:58;;;;;;;0.30;0.30;;;20.20;64.40;;;;;;4971976;28;20666;-18
2022/07/10 09:25:34;;;;;;;0.35;0.28;;;20.20;64.40;;;;;;4957354;28;20034;-18
2022/07/10 09:28:05;;;;;;;0.20;0.20;;;20.20;64.30;;;;;;4939178;28;20038;-18
2022/07/10 09:30:38;;;;;;;0.55;0.40;;;20.20;64.30;;;;;;4983772;28;20126;-18
2022/07/10 09:33:29;;;;;;;0.35;0.35;;;20.20;64.30;;;;;;4966249;28;20045;-18
2022/07/10 09:36:14;;;;;;;0.43;0.40;;;20.20;64.20;;;;;;4975557;28;20042;-18
2022/07/10 09:38:39;;;;;;;0.30;0.30;;;20.20;64.20;;;;;;4983283;28;20042;-22
2022/07/10 09:41:15;;;;;;;1.23;0.20;;;20.30;64.40;;;;;;4943441;28;20066;-18
2022/07/10 09:43:48;;;;;;;0.30;0.30;;;20.30;64.20;;;;;;4985603;28;20116;-18
2022/07/10 09:46:14;;;;;;;0.10;0.10;;;20.30;64.20;;;;;;4962612;28;20663;-19
2022/07/10 09:48:41;;;;;;;0.20;0.20;;;20.30;64.20;;;;;;4964984;28;20042;-19
2022/07/10 09:51:10;;;;;;;0.20;0.20;;;20.30;64.10;;;;;;4982641;28;20086;-18
2022/07/10 09:53:39;;;;;;;0.20;0.20;;;20.30;64.10;;;;;;4982045;28;20156;-18
2022/07/10 09:56:07;;;;;;;0.28;0.28;;;20.30;64.10;;;;;;4982383;28;20512;-19
2022/07/10 09:58:35;;;;;;;0.40;0.30;;;20.40;64.10;;;;;;4979373;28;20528;-18
2022/07/10 10:01:04;;;;;;;0.22;0.22;;;20.40;64.10;;;;;;4979126;28;20143;-23
2022/07/10 10:03:38;;;;;;;0.28;0.28;;;20.30;64.00;;;;;;4981559;28;20049;-18
2022/07/10 10:06:15;;;;;;;0.80;0.35;;;20.30;64.00;;;;;;4929459;28;20057;-19
2022/07/10 10:08:55;;;;;;;0.20;0.20;;;20.30;64.00;;;;;;4963272;28;20035;-19
2022/07/10 10:11:21;;;;;;;0.20;0.20;;;20.40;64.10;;;;;;4910518;28;20041;-19
2022/07/10 10:13:47;;;;;;;0.28;0.28;;;20.40;64.00;;;;;;4982011;28;20599;-19
2022/07/10 10:16:12;;;;;;;0.40;0.40;;;20.40;64.00;;;;;;4982140;28;20086;-20
2022/07/10 10:20:36;;;;;;;0.22;0.22;;;20.40;64.00;;;;;;4900872;28;20454;-20
2022/07/10 10:21:25;;;;;;;0.20;0.20;;;20.40;64.00;;;;;;4981142;28;20047;-19
2022/07/10 10:23:51;;;;;;;0.22;0.22;;;20.40;64.00;;;;;;4978228;28;20050;-22
2022/07/10 10:26:17;;;;;;;0.20;0.20;;;20.40;64.00;;;;;;4983117;28;20126;-19
2022/07/10 10:28:42;;;;;;;0.20;0.20;;;20.50;63.90;;;;;;4983073;28;20423;-19
2022/07/10 10:31:08;;;;;;;0.20;0.20;;;20.50;63.90;;;;;;4982852;28;20050;-19
2022/07/10 10:33:34;;;;;;;0.35;0.28;;;20.50;63.90;;;;;;4981359;28;20054;-20
2022/07/10 10:36:00;;;;;;;0.20;0.20;;;20.50;63.90;;;;;;4982758;28;20046;-19
2022/07/10 10:38:48;;;;;;;0.20;0.20;;;20.50;63.90;;;;;;4964022;28;20046;-19
2022/07/10 10:41:31;;;;;;;0.38;0.38;;;20.50;63.90;;;;;;4981935;28;20272;-20
2022/07/10 10:44:21;;;;;;;0.32;0.30;;;20.50;63.90;;;;;;4962907;28;20050;-19
2022/07/10 10:49:56;;;;;;;0.20;0.20;;;20.50;63.80;;;;;;4903421;28;20040;-19
2022/07/10 10:52:24;;;;;;;0.30;0.30;;;20.50;63.80;;;;;;4882398;28;20114;-19
2022/07/10 10:55:00;;;;;;;0.43;0.40;;;20.50;63.80;;;;;;4866467;28;20055;-19
2022/07/10 10:57:31;;;;;;;0.20;0.20;;;20.60;63.80;;;;;;4949677;28;20041;-20
2022/07/10 10:59:58;;;;;;;0.50;0.50;;;20.60;63.80;;;;;;4938801;28;20733;-19
2022/07/10 11:02:32;;;;;;;0.20;0.20;;;20.60;63.80;;;;;;4978751;28;20069;-19
2022/07/10 11:05:24;;;;;;;0.30;0.30;;;20.60;63.80;;;;;;4982209;28;20043;-20
2022/07/10 11:07:53;;;;;;;0.40;0.40;;;20.60;63.80;;;;;;4976665;28;20078;-18
2022/07/10 11:10:48;;;;;;;0.30;0.30;;;20.60;63.60;;;;;;4945488;28;20050;-19
2022/07/10 11:13:17;;;;;;;0.43;0.43;;;20.70;63.60;;;;;;4928922;28;20097;-19
2022/07/10 11:15:48;;;;;;;0.73;0.73;;;20.70;63.60;;;;;;4984381;28;20125;-19
2022/07/10 11:18:26;;;;;;;0.40;0.40;;;20.70;63.60;;;;;;4978055;28;20065;-19
2022/07/10 11:20:53;;;;;;;0.30;0.30;;;20.70;63.50;;;;;;4939880;28;20485;-20
2022/07/10 11:23:45;;;;;;;0.40;0.40;;;20.70;63.50;;;;;;4980961;28;20597;-19
2022/07/10 11:26:16;;;;;;;0.30;0.30;;;20.80;63.50;;;;;;4980378;28;20056;-18
2022/07/10 11:29:01;;;;;;;0.28;0.25;;;20.80;63.50;;;;;;4977289;28;20100;-19
2022/07/10 11:31:27;;;;;;;0.68;0.68;;;20.70;63.40;;;;;;4980858;28;20039;-19
2022/07/10 11:33:54;;;;;;;0.50;0.50;;;20.80;63.50;;;;;;4899468;28;20067;-18
2022/07/10 11:36:21;;;;;;;0.43;0.43;;;20.80;63.40;;;;;;4981394;28;20153;-19
2022/07/10 11:38:48;;;;;;;0.40;0.40;;;20.80;63.50;;;;;;4981312;28;20069;-18
2022/07/10 11:41:22;;;;;;;1.52;0.55;;;20.80;64.20;;;;;;4982483;28;20058;-18
2022/07/10 11:43:52;;;;;;;0.63;0.40;;;20.80;63.30;;;;;;4982299;28;20121;-19
2022/07/10 11:46:18;;;;;;;0.40;0.40;;;20.80;63.30;;;;;;4979390;28;20046;-18
2022/07/10 11:48:44;;;;;;;1.45;0.50;;;20.80;63.30;;;;;;4977288;28;20047;-18
2022/07/10 11:51:29;;;;;;;0.45;0.45;;;20.80;63.20;;;;;;4981440;28;20054;-18
2022/07/10 11:54:17;;;;;;;0.40;0.40;;;20.80;63.20;;;;;;4938306;28;20042;-18
2022/07/10 11:56:47;;;;;;;0.68;0.60;;;20.90;63.20;;;;;;4979584;28;20046;-18
2022/07/10 11:59:13;;;;;;;0.43;0.43;;;20.80;63.20;;;;;;4976743;28;20078;-19
2022/07/10 12:01:46;;;;;;;0.40;0.40;;;20.90;63.10;;;;;;4942437;28;20524;-19
2022/07/10 12:04:12;;;;;;;0.40;0.40;;;20.90;63.10;;;;;;4938552;28;20077;-18
2022/07/10 12:06:40;;;;;;;0.30;0.30;;;20.90;63.10;;;;;;4978945;28;20054;-18
2022/07/10 12:09:10;;;;;;;0.40;0.40;;;20.90;63.10;;;;;;4978642;28;20052;-18
2022/07/10 12:11:36;;;;;;;0.43;0.43;;;20.90;63.10;;;;;;4979006;28;20157;-18
2022/07/10 12:14:19;;;;;;;0.50;0.50;;;20.90;63.80;;;;;;4980163;28;20413;-18
2022/07/10 12:16:49;;;;;;;0.30;0.30;;;20.90;62.90;;;;;;4939207;28;20420;-18
2022/07/10 12:19:16;;;;;;;1.25;0.50;;;20.90;63.00;;;;;;4979049;28;20053;-18
2022/07/10 12:21:45;;;;;;;0.43;0.43;;;21.00;63.00;;;;;;4982249;28;20038;-18
2022/07/10 12:24:12;;;;;;;0.40;0.40;;;20.90;63.00;;;;;;4980397;28;20059;-18
2022/07/10 12:26:41;;;;;;;0.35;0.32;;;21.00;63.00;;;;;;4988385;28;21054;-19
2022/07/10 12:29:10;;;;;;;0.20;0.20;;;20.90;62.90;;;;;;4984036;28;20038;-19
2022/07/10 12:31:37;;;;;;;0.40;0.40;;;21.00;63.00;;;;;;4984154;28;20138;-20
2022/07/10 12:34:04;;;;;;;0.43;0.43;;;21.00;62.90;;;;;;4982824;28;20038;-18
2022/07/10 12:36:52;;;;;;;0.40;0.40;;;21.00;62.90;;;;;;4982034;28;20050;-18
2022/07/10 12:39:22;;;;;;;0.80;0.47;;;21.00;62.80;;;;;;4981426;28;20046;-18
2022/07/10 12:41:57;;;;;;;0.40;0.40;;;21.00;62.80;;;;;;4990213;28;20126;-20
2022/07/10 12:44:47;;;;;;;0.30;0.30;;;21.00;62.80;;;;;;4904963;28;20120;-18
2022/07/10 12:47:14;;;;;;;0.40;0.40;;;21.10;62.90;;;;;;4944154;28;20425;-18
2022/07/10 12:49:55;;;;;;;0.38;0.38;;;21.00;62.80;;;;;;4985682;28;20264;-18
2022/07/10 12:52:28;;;;;;;0.68;0.50;;;21.10;62.90;;;;;;4982786;28;20101;-18
2022/07/10 12:55:15;;;;;;;0.50;0.50;;;21.10;62.90;;;;;;4943481;28;20142;-19
2022/07/10 12:58:08;;;;;;;0.35;0.35;;;21.10;62.70;;;;;;4949373;28;20049;-18
2022/07/10 13:00:35;;;;;;;0.40;0.40;;;21.10;62.70;;;;;;4953562;28;20043;-19
2022/07/10 13:03:01;;;;;;;0.57;0.57;;;21.10;62.70;;;;;;4977422;28;20142;-18
2022/07/10 13:05:31;;;;;;;0.38;0.38;;;21.10;62.80;;;;;;4950373;28;20141;-19
2022/07/10 13:08:11;;;;;;;0.50;0.50;;;21.10;62.80;;;;;;4984741;28;20042;-19
2022/07/10 13:10:36;;;;;;;0.40;0.40;;;21.10;62.80;;;;;;4984868;28;20046;-19
2022/07/10 13:13:03;;;;;;;0.38;0.38;;;21.10;62.60;;;;;;4982832;28;20105;-19
2022/07/10 13:15:29;;;;;;;0.40;0.40;;;21.20;63.60;;;;;;4984301;28;20136;-19
2022/07/10 13:17:56;;;;;;;0.40;0.40;;;21.10;62.70;;;;;;4982340;28;20053;-18
2022/07/10 13:20:22;;;;;;;0.35;0.35;;;21.10;62.60;;;;;;4982165;28;20053;-18
2022/07/10 13:22:47;;;;;;;0.47;0.47;;;21.20;62.60;;;;;;4984340;28;20054;-18
2022/07/10 13:25:13;;;;;;;0.65;0.50;;;21.20;62.60;;;;;;4982199;28;20621;-18
2022/07/10 13:27:39;;;;;;;3.45;0.50;;;21.20;62.60;;;;;;4983004;28;20058;-18
2022/07/10 13:30:05;;;;;;;2.50;0.70;;;21.20;62.60;;;;;;4983153;28;20027;-18
2022/07/10 13:32:31;;;;;;;0.95;0.60;;;21.20;62.60;;;;;;4984974;28;20129;-20
2022/07/10 13:34:57;;;;;;;0.95;0.65;;;21.20;62.60;;;;;;4983768;28;20089;-19
2022/07/10 13:37:22;;;;;;;1.20;1.10;;;21.20;62.70;;;;;;4983742;28;20046;-19
2022/07/10 13:39:48;;;;;;;0.75;0.55;;;21.30;62.70;;;;;;4945797;28;20098;-18
2022/07/10 13:42:13;;;;;;;0.98;0.60;;;21.30;62.70;;;;;;4976321;28;20556;-19
2022/07/10 13:44:39;;;;;;;1.55;0.80;;;21.30;62.80;;;;;;4982938;28;20074;-18
2022/07/10 13:47:04;;;;;;;0.95;0.90;;;21.30;62.80;;;;;;4985914;28;20054;-19
2022/07/10 13:49:30;;;;;;;0.70;0.70;;;21.30;62.90;;;;;;4970968;28;20042;-19
2022/07/10 13:51:56;;;;;;;1.45;0.73;;;21.30;62.90;;;;;;4983491;28;20471;-18
2022/07/10 13:54:21;;;;;;;0.80;0.70;;;21.30;62.90;;;;;;4984033;28;20070;-19
2022/07/10 13:56:47;;;;;;;1.25;0.80;;;21.30;62.90;;;;;;4983942;28;20050;-18
2022/07/10 13:59:12;;;;;;;1.10;0.63;;;21.30;62.90;;;;;;4984902;28;20058;-18
2022/07/10 14:01:38;;;;;;;2.03;1.13;;;21.30;63.70;;;;;;4943534;28;20182;-19
2022/07/10 14:04:04;;;;;;;1.00;0.60;;;21.30;62.90;;;;;;4983699;28;20424;-19
2022/07/10 14:06:29;;;;;;;1.30;0.60;;;21.40;63.00;;;;;;4983539;28;20049;-19
2022/07/10 14:08:55;;;;;;;1.13;0.70;;;21.40;63.00;;;;;;4941618;28;20050;-20
2022/07/10 14:11:21;;;;;;;0.75;0.75;;;21.40;63.00;;;;;;4966134;28;20611;-19
2022/07/10 14:13:46;;;;;;;1.00;0.98;;;21.40;63.20;;;;;;4911084;28;20129;-21
2022/07/10 14:16:12;;;;;;;1.60;0.90;;;21.40;63.10;;;;;;4987966;28;20077;-21
2022/07/10 14:18:38;;;;;;;2.33;1.05;;;21.40;63.40;;;;;;4988638;28;20046;-21
2022/07/10 14:21:10;;;;;;;1.00;1.00;;;21.40;63.30;;;;;;4988290;28;20038;-21
2022/07/10 14:23:43;;;;;;;0.68;0.60;;;21.40;63.40;;;;;;4987703;28;20069;-22
2022/07/10 14:26:12;;;;;;;0.70;0.70;;;21.40;63.20;;;;;;4986522;28;20069;-25
2022/07/10 14:28:38;;;;;;;1.15;1.05;;;21.40;63.10;;;;;;4989089;28;20050;-21
2022/07/10 14:31:04;;;;;;;1.48;0.80;;;21.40;63.10;;;;;;4988420;28;20045;-21
2022/07/10 14:33:31;;;;;;;0.60;0.60;;;21.40;63.10;;;;;;4988945;28;20061;-21
2022/07/10 14:35:57;;;;;;;1.50;0.70;;;21.40;63.10;;;;;;4988190;28;20038;-23
2022/07/10 14:38:22;;;;;;;0.70;0.70;;;21.40;63.10;;;;;;4987695;28;20053;-21
2022/07/10 14:40:48;;;;;;;0.85;0.63;;;21.50;63.10;;;;;;4989142;28;20425;-20
2022/07/10 14:43:14;;;;;;;0.70;0.68;;;21.50;63.10;;;;;;4978930;28;20572;-21
2022/07/10 14:45:40;;;;;;;1.23;0.60;;;21.40;63.00;;;;;;4958832;28;20045;-21
2022/07/10 14:48:05;;;;;;;0.50;0.50;;;21.50;63.00;;;;;;4945467;28;20437;-20
2022/07/10 14:50:32;;;;;;;1.20;0.70;;;21.50;63.00;;;;;;4965768;28;20052;-22
2022/07/10 14:52:57;;;;;;;0.60;0.60;;;21.50;63.00;;;;;;4970776;28;20540;-22
2022/07/10 14:55:23;;;;;;;0.75;0.75;;;21.50;63.00;;;;;;4987378;28;20050;-21
2022/07/10 14:57:49;;;;;;;0.98;0.80;;;21.50;62.90;;;;;;4988315;28;20038;-21
2022/07/10 15:00:16;;;;;;;0.93;0.50;;;21.50;63.00;;;;;;4987922;28;20057;-19
2022/07/10 15:02:42;;;;;;;1.20;0.70;;;21.50;62.90;;;;;;4946863;28;21917;-19
2022/07/10 15:05:07;;;;;;;0.75;0.75;;;21.50;63.00;;;;;;4947664;28;20076;-19
2022/07/10 15:07:33;;;;;;;1.85;0.77;;;21.50;62.90;;;;;;4989198;28;20505;-18
2022/07/10 15:09:58;;;;;;;2.00;0.70;;;21.50;63.00;;;;;;4987514;28;20054;-18
2022/07/10 15:12:24;;;;;;;0.60;0.60;;;21.50;62.90;;;;;;4946267;28;20792;-20
2022/07/10 15:14:50;;;;;;;0.90;0.60;;;21.50;63.00;;;;;;4987717;28;20046;-23
2022/07/10 15:17:15;;;;;;;1.40;0.60;;;21.50;62.90;;;;;;4987562;28;20046;-19
2022/07/10 15:19:41;;;;;;;0.63;0.60;;;21.50;62.90;;;;;;4988815;28;20125;-19
2022/07/10 15:22:07;;;;;;;0.70;0.70;;;21.50;62.90;;;;;;4986980;28;20042;-19
2022/07/10 15:24:32;;;;;;;0.60;0.60;;;21.50;63.00;;;;;;4987829;28;20097;-19
2022/07/10 15:26:58;;;;;;;0.47;0.40;;;21.50;63.00;;;;;;4987181;28;20145;-20
2022/07/10 15:29:24;;;;;;;0.75;0.70;;;21.60;62.90;;;;;;4987406;28;20034;-19
2022/07/10 15:31:51;;;;;;;0.60;0.60;;;21.60;62.90;;;;;;4988430;28;20042;-19
2022/07/10 15:34:16;;;;;;;0.40;0.40;;;21.60;63.00;;;;;;4987446;28;20045;-20
2022/07/10 15:36:42;;;;;;;1.08;0.50;;;21.60;62.90;;;;;;4987522;28;20046;-19
2022/07/10 15:39:08;;;;;;;0.90;0.90;;;21.60;63.00;;;;;;4945545;28;20468;-18
2022/07/10 15:41:34;;;;;;;0.40;0.40;;;21.60;62.90;;;;;;4986939;28;20034;-19
2022/07/10 15:44:00;;;;;;;0.68;0.65;;;21.60;62.90;;;;;;4948041;28;20514;-19
2022/07/10 15:46:25;;;;;;;0.85;0.60;;;21.60;62.90;;;;;;4987240;28;20078;-18
2022/07/10 15:48:51;;;;;;;0.55;0.50;;;21.60;62.90;;;;;;4987999;28;20123;-20
2022/07/10 15:51:17;;;;;;;1.70;0.85;;;21.60;62.90;;;;;;4975767;28;20034;-20
2022/07/10 15:53:42;;;;;;;0.63;0.63;;;21.60;62.90;;;;;;4958433;28;20062;-19
2022/07/10 15:56:08;;;;;;;0.63;0.57;;;21.60;62.90;;;;;;4987832;28;20069;-19
2022/07/10 15:58:34;;;;;;;0.60;0.60;;;21.60;63.00;;;;;;4987530;28;20061;-25
2022/07/10 16:01:00;;;;;;;0.50;0.50;;;21.60;63.00;;;;;;4987601;28;20039;-19
2022/07/10 16:03:25;;;;;;;0.57;0.52;;;21.70;62.90;;;;;;4985789;28;20113;-20
2022/07/10 16:05:51;;;;;;;0.70;0.70;;;21.70;63.00;;;;;;4987816;28;20047;-19
2022/07/10 16:08:20;;;;;;;0.80;0.80;;;21.70;63.00;;;;;;4987371;28;20054;-18
2022/07/10 16:10:46;;;;;;;0.43;0.43;;;21.70;63.00;;;;;;4983400;28;20571;-24
2022/07/10 16:13:12;;;;;;;0.50;0.50;;;21.70;63.00;;;;;;4986841;28;20129;-19
2022/07/10 16:15:38;;;;;;;0.43;0.43;;;21.70;62.90;;;;;;4986889;28;20042;-19
2022/07/10 16:18:03;;;;;;;0.40;0.40;;;21.70;63.00;;;;;;4987172;28;20497;-19
2022/07/10 16:20:29;;;;;;;0.40;0.40;;;21.70;63.00;;;;;;4969516;28;20049;-19
2022/07/10 16:22:54;;;;;;;0.40;0.40;;;21.70;63.00;;;;;;4965844;28;20050;-19
2022/07/10 16:28:04;;;;;;;0.40;0.40;;;21.70;62.90;;;;;;4985481;28;20040;-19
2022/07/10 16:30:30;;;;;;;0.43;0.43;;;21.70;63.00;;;;;;4986565;28;20034;-19
2022/07/10 16:32:55;;;;;;;0.32;0.32;;;21.80;62.90;;;;;;4986972;28;20061;-19
2022/07/10 16:35:21;;;;;;;0.50;0.50;;;21.80;63.00;;;;;;4987394;28;20401;-19
2022/07/10 16:37:46;;;;;;;0.35;0.35;;;21.80;63.10;;;;;;4987914;28;20046;-22
2022/07/10 16:40:12;;;;;;;0.45;0.45;;;21.80;63.20;;;;;;4986009;28;20030;-19
2022/07/10 16:42:38;;;;;;;0.50;0.50;;;21.80;63.20;;;;;;4987882;28;20125;-19
2022/07/10 16:45:04;;;;;;;0.50;0.50;;;21.80;63.10;;;;;;4986363;28;20481;-20
2022/07/10 16:47:30;;;;;;;0.70;0.50;;;21.80;63.10;;;;;;4986877;28;20049;-19
2022/07/10 16:49:57;;;;;;;0.80;0.55;;;21.80;63.20;;;;;;4952656;28;20131;-19
2022/07/10 16:52:23;;;;;;;0.50;0.50;;;21.80;63.10;;;;;;4981243;28;20145;-18
2022/07/10 16:54:48;;;;;;;0.40;0.40;;;21.80;63.20;;;;;;4987212;28;20113;-19
2022/07/10 16:57:14;;;;;;;0.50;0.50;;;21.80;63.10;;;;;;4984323;28;20047;-19
2022/07/10 16:59:40;;;;;;;0.38;0.38;;;21.80;62.90;;;;;;4986985;28;20125;-19
2022/07/10 17:02:05;;;;;;;0.47;0.47;;;21.80;63.00;;;;;;4987125;28;20417;-19
2022/07/10 17:04:37;;;;;;;0.40;0.40;;;21.80;63.10;;;;;;4986837;28;20104;-19
2022/07/10 17:07:04;;;;;;;0.50;0.50;;;21.80;63.10;;;;;;4986414;28;20035;-20
2022/07/10 17:09:30;;;;;;;0.50;0.40;;;21.80;63.20;;;;;;4983201;28;20042;-19
2022/07/10 17:11:55;;;;;;;0.68;0.40;;;21.90;63.30;;;;;;4988770;28;20034;-19
2022/07/10 17:14:21;;;;;;;0.32;0.32;;;21.90;63.30;;;;;;4989379;28;20046;-18